< < Back
Terminal Aerodrome Forecast


Current Version              Previous Versions:   1  2  3  4  5  6  7  8  9  

Terminal Aerodrome Forecast

828
FTUS42 KILM 292338
TAFILM
TAF
KILM 292338Z 3000/3024 14011KT P6SM VCSH SCT030 SCT050
     FM300200 12004KT P6SM -RA FEW007 SCT015 BKN025
     FM300700 13004KT 6SM BR VCSH SCT008 OVC025
     FM301400 14009KT P6SM -RA BKN025 OVC050
     FM302200 11008KT P6SM -SHRA SCT025 OVC050=



Latest METAR

504
SAUS70 KWBC 301200 RRJ
MTRILM
METAR KILM 301153Z AUTO 11003KT 10SM SCT036 23/22 A2997 RMK AO2 SLP147
60000 70017 T02330222 10233 20211 53007


USA.gov is the U.S. government's official web portal to all federal, state and local government web resources and services.